Weather observations for the past three days for
Socorro Municipal Airport
Imperial (Metric)
Date Time (mdt) Wind (mph) Vis. (mi.) Weather Sky Cond. Temperature (ºF) Relative Humidity Wind Chill (°F) Heat Index (°F) Pressure Precipitation (in)
Air Dwpt 6 hour altimeter (in) sea level (mb) 1 hr 3 hr 6 hr
Max. Min.
10 13:55 N 6 10.00 Fair CLR 86.7 14.2 7% 83 30.07 0.0
10 13:35 E 7 G 24 10.00 Fair CLR 85.8 14.2 7% 83 30.08 0.0
10 13:15 NE 13 G 20 10.00 Fair CLR 85.5 18.9 8% 82 30.08 0.0
10 12:55 NE 8 10.00 Fair CLR 83.8 21.9 10% 81 30.1 0.0
10 12:35 NE 7 10.00 Fair CLR 84.2 22.1 10% 81 30.1 0.0
10 12:15 N 12 G 20 10.00 Fair CLR 84 22.1 10% 81 30.11 0.0
10 11:55 NW 8 10.00 Fair CLR 84.6 22.8 84.6 65.8 10% 82 30.11 0.0
10 11:35 N 6 10.00 Fair CLR 81.9 23.7 12% 80 30.11 0.0
10 11:15 NE 7 10.00 Fair CLR 80.1 23.9 12% 78 30.11 0.0
10 10:55 E 3 10.00 Fair CLR 79.5 24.4 13% 78 30.11 0.0
10 10:35 Calm 10.00 Fair CLR 78.8 24.6 13% 77 30.11 0.0
10 10:15 Calm 10.00 Fair CLR 77.9 25.7 14% 77 30.11 0.0
10 09:55 N 3 10.00 Fair CLR 77 26.2 15% 76 30.11 0.0
10 09:35 E 3 10.00 Fair CLR 75.2 25.5 16% 76 30.11 0.0
10 09:15 N 5 10.00 Fair CLR 74.5 25 16% 30.11 0.0
10 08:55 N 6 10.00 Fair CLR 73.9 25 16% 30.12 0.0
10 08:35 N 6 10.00 Fair CLR 71.2 27 19% 30.12 0.0
10 08:15 N 6 10.00 Fair CLR 70.5 25.7 19% 30.11 0.0
10 07:55 N 3 10.00 Fair CLR 68.9 25.7 20% 30.09 0.0
10 07:35 NW 3 10.00 Fair CLR 68 25.9 20% 30.08 0.0
10 07:15 Calm 10.00 Fair CLR 67.3 25.5 21% 30.07 0.0
10 06:55 W 7 10.00 Partly Cloudy SCT110 65.8 24.8 21% 30.07 0.0
10 06:35 W 5 10.00 Fair CLR 67.6 25.2 20% 30.05 0.0
10 06:15 Calm 10.00 Fair CLR 68.9 25.2 19% 30.04 0.0
10 05:55 NW 7 10.00 Fair CLR 70.2 25.3 77.4 66.7 19% 30.05 0.0
10 05:35 NW 12 10.00 Fair CLR 70 26.2 19% 30.05 0.0
10 05:15 NW 9 10.00 Fair CLR 68.9 26.4 20% 30.04 0.0
10 04:55 N 10 G 17 10.00 Fair CLR 69.6 25.5 19% 30.04 0.0
10 04:35 N 15 G 18 10.00 Fair CLR 69.8 20.5 15% 30.04 0.0
10 04:15 N 14 10.00 Fair CLR 69.1 19.8 15% 30.03 0.0
10 03:55 N 9 10.00 Fair CLR 69.3 20.1 15% 30.02 0.0
10 03:35 N 6 10.00 Fair CLR 67.5 21.6 17% 30.01 0.0
10 03:15 N 8 10.00 Fair CLR 73.4 19.4 13% 30 0.0
10 02:55 NW 12 10.00 Fair CLR 74.8 19.6 12% 29.99 0.0
10 02:35 NW 17 G 25 10.00 Fair CLR 75 19.4 12% 75 29.99 0.0
10 02:15 N 13 G 21 10.00 Fair CLR 74.8 18.5 12% 29.99 0.0
10 01:55 NW 13 G 22 10.00 Fair CLR 75.6 18.1 11% 75 29.99 0.0
10 01:35 NW 8 10.00 Fair CLR 74.3 13.6 10% 29.99 0.0
10 01:15 N 7 10.00 Fair CLR 73.8 12.6 9% 29.99 0.0
10 00:55 N 7 10.00 Fair CLR 75.6 13.5 9% 75 29.98 0.0
10 00:35 NW 8 10.00 Fair CLR 76.1 12.9 9% 75 29.97 0.0
10 00:15 N 9 G 25 10.00 Fair CLR 77.4 12.7 8% 76 29.97 0.0
09 23:55 NE 5 10.00 Partly Cloudy SCT120 76.8 12.7 89.2 76.1 9% 76 29.94 0.0
09 23:35 N 3 10.00 Fair CLR 76.8 12.6 8% 76 29.94 0.0
09 23:15 Calm 10.00 Fair CLR 77.9 12.7 8% 76 29.94 0.0
09 22:55 Calm 10.00 Fair CLR 78.1 12.7 8% 77 29.93 0.0
09 22:35 Calm 10.00 Fair CLR 79.9 12.6 8% 78 29.93 0.0
09 22:15 Calm 10.00 Fair CLR 78.6 13.1 8% 77 29.93 0.0
09 21:55 Calm 10.00 Fair CLR 80.4 12.9 8% 78 29.92 0.0
09 21:35 NW 9 10.00 Fair CLR 81.7 12 7% 79 29.91 0.0
09 21:15 NW 6 10.00 Fair CLR 79.7 12.4 8% 78 29.9 0.0
09 20:55 N 5 10.00 Fair CLR 80.4 14.5 8% 78 29.9 0.0
09 20:35 N 5 10.00 Fair CLR 81.9 17.4 9% 79 29.89 0.0
09 20:15 N 5 10.00 Fair CLR 82.6 20.1 10% 80 29.88 0.0
09 19:55 N 5 10.00 Fair CLR 85.5 17.2 8% 82 29.88 0.0
09 19:35 NW 6 G 17 10.00 Fair CLR 86.5 17.1 7% 83 29.87 0.0
09 19:15 SE 8 10.00 Fair CLR 87.4 21.4 9% 84 29.86 0.0
09 18:55 SE 8 10.00 Fair CLR 88.9 19 8% 85 29.86 0.0
09 18:35 SE 6 10.00 Fair CLR 88.7 17.2 7% 85 29.87 0.0
09 18:15 SE 6 10.00 Fair CLR 88.2 17.6 7% 84 29.86 0.0
09 17:55 SE 8 10.00 Fair CLR 87.8 17.8 90.5 84.7 7% 84 29.86 0.0
09 17:35 E 3 10.00 Fair CLR 87.8 17.4 7% 84 29.87 0.0
09 17:15 S 8 10.00 Fair CLR 88.9 18.3 7% 85 29.87 0.0
09 16:55 Calm 10.00 Fair CLR 89.2 18.7 7% 85 29.87 0.0
09 16:35 SE 6 10.00 Fair CLR 89.1 17.8 7% 85 29.87 0.0
09 16:15 Calm 10.00 Fair CLR 89.1 18.1 7% 85 29.89 0.0
09 15:55 E 8 10.00 Fair CLR 88 18.5 8% 84 29.89 0.0
09 15:35 E 9 10.00 Fair CLR 88.7 19.2 8% 85 29.9 0.0
09 15:15 SE 6 10.00 Fair CLR 88.5 19.2 8% 85 29.92 0.0
09 14:55 SE 6 10.00 Fair CLR 87.8 19.4 8% 84 29.93 0.0
09 14:35 NE 7 10.00 Fair CLR 87.4 19.4 8% 84 29.94 0.0
09 14:15 E 10 10.00 Fair CLR 87.1 20.3 8% 84 29.95 0.0
09 13:55 Calm 10.00 Fair CLR 87.8 20.7 8% 84 29.96 0.0
09 13:35 E 7 10.00 Fair CLR 88.7 21 8% 85 29.96 0.0
09 13:15 E 5 G 9 10.00 Fair CLR 88.7 21.2 8% 85 29.97 0.0
09 12:55 NE 8 10.00 Fair CLR 88.3 21.2 8% 85 29.98 0.0
09 12:35 N 3 G 17 10.00 Fair CLR 86.7 21.9 9% 83 29.99 0.0
09 12:15 Calm 10.00 Fair CLR 84.7 22.3 10% 82 29.99 0.0
09 11:55 S 7 10.00 Fair CLR 86.5 23.2 86.5 52.5 10% 83 30 0.0
09 11:35 SE 5 10.00 Fair CLR 84.2 23.4 11% 81 30.01 0.0
09 11:15 E 6 10.00 Fair CLR 82.8 23.5 11% 80 30.01 0.0
09 10:55 E 7 10.00 Fair CLR 80.2 23.7 12% 78 30.02 0.0
09 10:35 E 5 10.00 Fair CLR 78.8 23 12% 77 30.02 0.0
09 10:15 Calm 10.00 Fair CLR 77 21.7 13% 76 30.02 0.0
09 09:55 Calm 10.00 Fair CLR 74.3 20.7 13% 30.04 0.0
09 09:35 NE 5 10.00 Fair CLR 72.9 20.5 14% 30.04 0.0
09 09:15 Calm 10.00 Fair CLR 70.7 19.4 14% 30.04 0.0
09 08:55 N 7 10.00 Fair CLR 69.8 19.4 15% 30.04 0.0
09 08:35 NE 8 10.00 Fair CLR 69.1 17.6 14% 30.05 0.0
09 08:15 Calm 10.00 Fair CLR 67.1 16.5 14% 30.04 0.0
09 07:55 NW 7 10.00 Fair CLR 63.7 15.8 15% 30.04 0.0
09 07:35 NW 3 10.00 Fair CLR 60.8 16.7 18% 30.03 0.0
09 07:15 NW 3 10.00 Fair CLR 60.6 16.7 18% 30.02 0.0
09 06:55 Calm 10.00 Fair CLR 55.8 16.7 21% 30.02 0.0
09 06:35 NW 5 10.00 Fair CLR 52.5 16.7 24% 30 0.0
09 06:15 W 5 10.00 Fair CLR 53.8 15.3 22% 30 0.0
09 05:55 Calm 10.00 Fair CLR 54.9 15.4 65.3 51.1 21% 29.99 0.0
09 05:35 W 8 10.00 Fair CLR 56.8 15.4 19% 29.99 0.0
09 05:15 W 10 10.00 Fair CLR 56.5 15.8 20% 29.99 0.0
09 04:55 S 6 10.00 Fair CLR 52.9 16.5 24% 29.98 0.0
09 04:35 S 5 10.00 Fair CLR 51.6 18 26% 29.97 0.0
09 04:15 S 5 10.00 Fair CLR 51.8 20.1 29% 29.97 0.0
09 03:55 Calm 10.00 Fair CLR 57.9 14.9 18% 29.96 0.0
09 03:35 W 3 10.00 Fair CLR 56.5 14.9 19% 29.96 0.0
09 03:15 W 3 10.00 Fair CLR 57 14.4 18% 29.96 0.0
09 02:55 NW 3 10.00 Fair CLR 59.9 16.7 18% 29.96 0.0
09 02:35 N 3 10.00 Fair CLR 58.8 16.2 19% 29.96 0.0
09 02:15 NW 3 10.00 Fair CLR 58.3 15.6 19% 29.96 0.0
09 01:55 N 6 10.00 Fair CLR 59.9 16.3 18% 29.97 0.0
09 01:35 SW 7 10.00 Fair CLR 60.6 14.5 16% 29.96 0.0
09 01:15 W 7 10.00 Fair CLR 62.2 14 15% 29.97 0.0
09 00:55 SW 6 10.00 Fair CLR 59.2 14.7 17% 29.98 0.0
09 00:35 Calm 10.00 Fair CLR 61.7 16.2 17% 29.98 0.0
09 00:15 Calm 10.00 Fair CLR 63.7 16 16% 29.98 0.0
08 23:55 Calm 10.00 Fair CLR 65.7 16.3 86.7 64 15% 29.98 0.0
08 23:35 Calm 10.00 Fair CLR 64.6 15.3 15% 29.98 0.0
08 23:15 SW 3 10.00 Fair CLR 67.8 16 13% 29.98 0.0
08 22:55 SE 3 10.00 Fair CLR 67.5 18 15% 29.98 0.0
08 22:35 Calm 10.00 Fair CLR 70.3 17.1 13% 29.97 0.0
08 22:15 SW 9 10.00 Fair CLR 72.1 16.2 12% 29.97 0.0
08 21:55 SW 9 10.00 Fair CLR 71.6 15.8 12% 29.96 0.0
08 21:35 W 8 10.00 Fair CLR 71.8 15.8 12% 29.96 0.0
08 21:15 W 8 10.00 Fair CLR 72.3 16.2 12% 29.94 0.0
08 20:55 W 6 10.00 Fair CLR 71.8 15.8 12% 29.94 0.0
08 20:35 SW 3 10.00 Fair CLR 72.5 15.6 11% 29.93 0.0
08 20:15 S 3 10.00 Fair CLR 75.2 16.7 11% 75 29.92 0.0
08 19:55 Calm 10.00 Fair CLR 80.1 18.5 10% 78 29.91 0.0
08 19:35 NE 5 10.00 Fair CLR 81.9 18.3 9% 79 29.91 0.0
08 19:15 NE 5 10.00 Fair CLR 83.3 17.8 9% 81 29.9 0.0
08 18:55 N 6 10.00 Fair CLR 84.6 17.6 8% 82 29.9 0.0
08 18:35 NE 8 10.00 Fair CLR 85.6 18 8% 82 29.9 0.0
08 18:15 N 10 10.00 Fair CLR 85.6 18 8% 82 29.9 0.0
08 17:55 N 9 10.00 Fair CLR 86.4 17.8 87.1 78.6 8% 83 29.9 0.0
08 17:35 N 8 G 12 10.00 Fair CLR 86.5 17.6 8% 83 29.9 0.0
08 17:15 N 5 10.00 Fair CLR 86.7 18.1 8% 83 29.9 0.0
08 16:55 N 12 G 20 10.00 Fair CLR 86.4 17.8 8% 83 29.9 0.0
08 16:35 N 10 10.00 Fair CLR 86 18.1 8% 83 29.91 0.0
08 16:15 N 10 10.00 Fair CLR 85.3 18.7 8% 82 29.92 0.0
08 15:55 NE 7 10.00 Fair CLR 85.3 18.7 8% 82 29.92 0.0
08 15:35 NE 5 10.00 Fair CLR 85.5 19 8% 82 29.93 0.0
08 15:15 E 3 10.00 Fair CLR 84 19.4 9% 81 29.94 0.0
08 14:55 Calm 10.00 Fair CLR 83.1 19.2 9% 80 29.96 0.0
08 14:35 Calm 10.00 Fair CLR 83.3 19.4 9% 81 29.97 0.0
08 14:15 NE 14 G 18 10.00 Fair CLR 83.8 19.6 9% 81 29.97 0.0
08 13:55 N 14 G 20 10.00 Fair CLR 82.4 19.4 9% 80 29.98 0.0
08 13:35 NE 15 G 21 10.00 Fair CLR 82.8 19.4 9% 80 29.98 0.0
08 13:15 NE 15 G 21 10.00 Fair CLR 82.9 19.6 9% 80 29.99 0.0
08 12:55 N 12 G 16 10.00 Fair CLR 81.1 19.9 10% 79 30 0.0
08 12:35 NE 12 G 18 10.00 Fair CLR 80.6 20.3 10% 79 30.01 0.0
08 12:15 N 8 G 16 10.00 Fair CLR 80.2 20.1 11% 78 30.02 0.0
08 11:55 N 13 G 17 10.00 Fair CLR 79.3 19.9 79.3 49.3 11% 78 30.03 0.0
08 11:35 N 9 G 18 10.00 Fair CLR 77.4 19.2 11% 76 30.04 0.0
08 11:15 NW 8 10.00 Fair CLR 76.3 16.9 10% 76 30.04 0.0
08 10:55 N 9 10.00 Fair CLR 75.4 15.6 10% 75 30.05 0.0
08 10:35 N 9 10.00 Fair CLR 73.8 14.9 10% 30.05 0.0
08 10:15 N 7 10.00 Fair CLR 71.8 14.7 11% 30.05 0.0
08 09:55 N 7 10.00 Fair CLR 68.9 13.6 12% 30.06 0.0
08 09:35 N 10 10.00 Fair CLR 67.5 12 11% 30.06 0.0
08 09:15 N 9 10.00 Fair CLR 65.8 10.9 12% 30.06 0.0
08 08:55 N 8 10.00 Fair CLR 64.8 10.8 12% 30.06 0.0
08 08:35 N 7 10.00 Fair CLR 63 10.8 13% 30.06 0.0
08 08:15 NW 8 10.00 Fair CLR 61.7 10.4 13% 30.06 0.0
08 07:55 N 6 10.00 Fair CLR 59.7 9.9 14% 30.06 0.0
08 07:35 N 7 10.00 Fair CLR 58.5 9.3 14% 30.05 0.0
08 07:15 NW 7 10.00 Fair CLR 55 8.4 15% 30.05 0.0
08 06:55 NW 8 10.00 Fair CLR 52.3 8.6 17% 30.04 0.0
08 06:35 NW 7 10.00 Fair CLR 50.4 8.4 18% 30.03 0.0
08 06:15 NW 8 10.00 Fair CLR 51.1 9.5 19% 30.03 0.0
08 05:55 NW 6 10.00 Fair CLR 49.1 10.4 57.2 49.1 21% 47 30.03 0.0
08 05:35 NW 8 10.00 Fair CLR 51.1 8.6 18% 30.02 0.0
08 05:15 N 6 10.00 Fair CLR 50.9 11.1 20% 30.02 0.0
08 04:55 N 5 10.00 Fair CLR 49.6 13.1 23% 48 30.02 0.0
08 04:35 N 9 10.00 Fair CLR 52.2 13.1 21% 30.02 0.0
08 04:15 N 7 10.00 Fair CLR 52.7 12 20% 30.01 0.0
08 03:55 NW 7 10.00 Fair CLR 50.2 12.6 22% 30 0.0
08 03:35 NW 7 10.00 Fair CLR 50.2 11.7 21% 30 0.0
08 03:15 N 3 10.00 Fair CLR 52 11.3 19% 30 0.0
08 02:55 NW 3 10.00 Fair CLR 51.3 14 22% 30 0.0
08 02:35 W 5 10.00 Fair CLR 53.2 14.5 21% 30 0.0
08 02:15 Calm 10.00 Fair CLR 50.4 12.9 22% 30 0.0
08 01:55 Calm 10.00 Fair CLR 52.7 13.3 21% 30.01 0.0
08 01:35 Calm 10.00 Fair CLR 55.2 14.4 20% 30.01 0.0
08 01:15 W 6 10.00 Fair CLR 55.2 14 19% 30.02 0.0
08 00:55 W 5 10.00 Fair CLR 53.1 11.8 19% 30.02 0.0
08 00:35 Calm 10.00 Fair CLR 54.1 12.6 19% 30.02 0.0
08 00:15 NW 3 10.00 Fair CLR 56.1 12.7 18% 30.02 0.0
07 23:55 SW 6 10.00 Fair CLR 57.2 13.3 77.5 57.2 17% 30.02 0.0
07 23:35 W 6 10.00 Fair CLR 57.9 12.6 17% 30.02 0.0
07 23:15 W 6 10.00 Fair CLR 59 10.9 15% 30.02 0.0
07 22:55 S 8 10.00 Fair CLR 59 10.9 15% 30.02 0.0
07 22:35 N 6 10.00 Fair CLR 62.8 12.2 14% 30.02 0.0
07 22:15 W 7 10.00 Fair CLR 63.5 12.9 14% 30.01 0.0
07 21:55 W 8 10.00 Fair CLR 63.1 12.6 14% 30 0.0
07 21:35 W 8 10.00 Fair CLR 63.1 11.3 13% 29.99 0.0
07 21:15 W 6 10.00 Fair CLR 62.2 10.8 13% 29.99 0.0
07 20:55 Calm 10.00 Fair CLR 62.1 9.1 12% 29.98 0.0
07 20:35 Calm 10.00 Fair CLR 66 9.9 11% 29.98 0.0
07 20:15 Calm 10.00 Fair CLR 71.2 12.6 10% 29.97 0.0
07 19:55 Calm 10.00 Fair CLR 71.8 11.5 10% 29.97 0.0
07 19:35 Calm 10.00 Fair CLR 75.2 11.8 9% 75 29.97 0.0
07 19:15 SE 3 10.00 Fair CLR 75.7 9.7 8% 75 29.97 0.0
07 18:55 Calm 10.00 Fair CLR 76.3 7.5 7% 75 29.97 0.0
07 18:35 E 3 10.00 Fair CLR 76.1 8.2 7% 75 29.97 0.0
07 18:15 NE 6 10.00 Fair CLR 77.5 8.4 7% 76 29.97 0.0
07 17:55 NE 5 10.00 Fair CLR 77.4 8.2 78.3 65.8 7% 76 29.97 0.0
07 17:35 E 6 10.00 Fair CLR 77.2 8.8 7% 76 29.97 0.0
07 17:15 Calm 10.00 Fair CLR 77.5 9.5 7% 76 29.97 0.0
07 16:55 N 3 10.00 Fair CLR 77 11.3 8% 76 29.98 0.0
07 16:35 N 3 10.00 Fair CLR 77.2 11.8 8% 76 29.98 0.0
07 16:15 E 7 10.00 Fair CLR 76.8 13.6 9% 76 29.99 0.0
07 15:55 NE 7 10.00 Fair CLR 77.4 14 9% 76 30 0.0
07 15:35 N 6 10.00 Fair CLR 76.3 14.5 9% 75 30.01 0.0
07 15:15 SE 7 10.00 Fair CLR 75.4 16 10% 75 30.02 0.0
07 14:15 NE 7 10.00 Fair CLR 73 18.3 12% 30.05 0.0
Date Time (mdt) Wind (mph) Vis. (mi.) Weather Sky Cond. Air Dwpt Max. Min. Relative Humidity Wind Chill (°F) Heat Index (°F) altimeter (in) sea level (mb) 1 hr 3 hr 6 hr
6 hour
Temperature (ºF) Pressure Precipitation (in)